sensor_id;sensor_type;location;lat;lon;timestamp;temperature;humidity
67364;HTU21D;54250;45.572;38.086;2023-02-11T00:00:15;-5.33;76.82
67364;HTU21D;54250;45.572;38.086;2023-02-11T00:02:41;-5.33;76.94
67364;HTU21D;54250;45.572;38.086;2023-02-11T00:05:07;-5.29;76.98
67364;HTU21D;54250;45.572;38.086;2023-02-11T00:07:34;-5.24;77.05
67364;HTU21D;54250;45.572;38.086;2023-02-11T00:10:00;-5.22;76.98
67364;HTU21D;54250;45.572;38.086;2023-02-11T00:12:27;-5.14;76.92
67364;HTU21D;54250;45.572;38.086;2023-02-11T00:14:54;-5.07;76.92
67364;HTU21D;54250;45.572;38.086;2023-02-11T00:17:20;-5.02;76.90
67364;HTU21D;54250;45.572;38.086;2023-02-11T00:19:50;-4.97;76.94
67364;HTU21D;54250;45.572;38.086;2023-02-11T00:22:16;-4.96;77.05
67364;HTU21D;54250;45.572;38.086;2023-02-11T00:24:42;-4.95;77.15
67364;HTU21D;54250;45.572;38.086;2023-02-11T00:27:09;-4.91;77.15
67364;HTU21D;54250;45.572;38.086;2023-02-11T00:29:36;-4.94;77.12
67364;HTU21D;54250;45.572;38.086;2023-02-11T00:32:02;-5.02;77.25
67364;HTU21D;54250;45.572;38.086;2023-02-11T00:34:34;-5.07;77.35
67364;HTU21D;54250;45.572;38.086;2023-02-11T00:37:01;-5.10;77.49
67364;HTU21D;54250;45.572;38.086;2023-02-11T00:39:27;-5.13;77.50
67364;HTU21D;54250;45.572;38.086;2023-02-11T00:41:54;-5.11;77.45
67364;HTU21D;54250;45.572;38.086;2023-02-11T00:44:20;-5.10;77.43
67364;HTU21D;54250;45.572;38.086;2023-02-11T00:46:46;-5.08;77.46
67364;HTU21D;54250;45.572;38.086;2023-02-11T00:49:12;-5.00;77.32
67364;HTU21D;54250;45.572;38.086;2023-02-11T00:51:40;-4.97;77.26
67364;HTU21D;54250;45.572;38.086;2023-02-11T00:54:06;-4.96;77.36
67364;HTU21D;54250;45.572;38.086;2023-02-11T00:56:33;-4.93;77.37
67364;HTU21D;54250;45.572;38.086;2023-02-11T00:58:59;-4.93;77.47
67364;HTU21D;54250;45.572;38.086;2023-02-11T01:01:25;-4.89;77.50
67364;HTU21D;54250;45.572;38.086;2023-02-11T01:03:51;-4.87;77.44
67364;HTU21D;54250;45.572;38.086;2023-02-11T01:06:17;-4.90;77.50
67364;HTU21D;54250;45.572;38.086;2023-02-11T01:08:44;-4.94;77.69
67364;HTU21D;54250;45.572;38.086;2023-02-11T01:11:17;-4.95;77.74
67364;HTU21D;54250;45.572;38.086;2023-02-11T01:13:44;-4.93;77.76
67364;HTU21D;54250;45.572;38.086;2023-02-11T01:16:11;-4.91;77.79
67364;HTU21D;54250;45.572;38.086;2023-02-11T01:18:37;-4.93;77.79
67364;HTU21D;54250;45.572;38.086;2023-02-11T01:21:04;-4.88;77.76
67364;HTU21D;54250;45.572;38.086;2023-02-11T01:23:30;-4.83;77.65
67364;HTU21D;54250;45.572;38.086;2023-02-11T01:25:56;-4.79;77.61
67364;HTU21D;54250;45.572;38.086;2023-02-11T01:28:25;-4.75;77.55
67364;HTU21D;54250;45.572;38.086;2023-02-11T01:30:52;-4.75;77.53
67364;HTU21D;54250;45.572;38.086;2023-02-11T01:33:19;-4.74;77.58
67364;HTU21D;54250;45.572;38.086;2023-02-11T01:35:45;-4.74;77.64
67364;HTU21D;54250;45.572;38.086;2023-02-11T01:38:15;-4.73;77.60
67364;HTU21D;54250;45.572;38.086;2023-02-11T01:40:53;-4.74;77.65
67364;HTU21D;54250;45.572;38.086;2023-02-11T01:43:20;-4.75;77.76
67364;HTU21D;54250;45.572;38.086;2023-02-11T01:48:16;-4.79;77.88
67364;HTU21D;54250;45.572;38.086;2023-02-11T01:50:44;-4.80;77.95
67364;HTU21D;54250;45.572;38.086;2023-02-11T01:53:13;-4.80;77.89
67364;HTU21D;54250;45.572;38.086;2023-02-11T01:55:59;-4.90;77.80
67364;HTU21D;54250;45.572;38.086;2023-02-11T01:58:44;-5.00;77.95
67364;HTU21D;54250;45.572;38.086;2023-02-11T02:01:15;-5.05;77.98
67364;HTU21D;54250;45.572;38.086;2023-02-11T02:03:46;-5.09;78.01
67364;HTU21D;54250;45.572;38.086;2023-02-11T02:06:18;-5.10;78.00
67364;HTU21D;54250;45.572;38.086;2023-02-11T02:08:54;-5.12;77.89
67364;HTU21D;54250;45.572;38.086;2023-02-11T02:11:21;-5.15;77.87
67364;HTU21D;54250;45.572;38.086;2023-02-11T02:13:48;-5.17;77.86
67364;HTU21D;54250;45.572;38.086;2023-02-11T02:16:17;-5.17;77.86
67364;HTU21D;54250;45.572;38.086;2023-02-11T02:37:34;-5.18;78.09
67364;HTU21D;54250;45.572;38.086;2023-02-11T02:40:06;-5.16;78.10
67364;HTU21D;54250;45.572;38.086;2023-02-11T02:42:34;-5.18;78.14
67364;HTU21D;54250;45.572;38.086;2023-02-11T02:45:01;-5.27;78.27
67364;HTU21D;54250;45.572;38.086;2023-02-11T02:47:27;-5.31;78.45
67364;HTU21D;54250;45.572;38.086;2023-02-11T02:49:53;-5.35;78.60
67364;HTU21D;54250;45.572;38.086;2023-02-11T02:52:49;-5.37;78.53
67364;HTU21D;54250;45.572;38.086;2023-02-11T02:58:13;-5.39;78.50
67364;HTU21D;54250;45.572;38.086;2023-02-11T03:06:16;-5.48;78.58
67364;HTU21D;54250;45.572;38.086;2023-02-11T03:08:54;-5.53;78.67
67364;HTU21D;54250;45.572;38.086;2023-02-11T03:11:22;-5.56;78.79
67364;HTU21D;54250;45.572;38.086;2023-02-11T03:13:49;-5.52;78.76
67364;HTU21D;54250;45.572;38.086;2023-02-11T03:16:23;-5.47;78.62
67364;HTU21D;54250;45.572;38.086;2023-02-11T03:19:02;-5.46;78.47
67364;HTU21D;54250;45.572;38.086;2023-02-11T03:21:31;-5.55;78.56
67364;HTU21D;54250;45.572;38.086;2023-02-11T03:24:02;-5.62;78.69
67364;HTU21D;54250;45.572;38.086;2023-02-11T03:26:54;-5.85;78.75
67364;HTU21D;54250;45.572;38.086;2023-02-11T03:29:32;-6.01;79.24
67364;HTU21D;54250;45.572;38.086;2023-02-11T03:32:13;-6.26;79.44
67364;HTU21D;54250;45.572;38.086;2023-02-11T03:34:51;-6.43;79.82
67364;HTU21D;54250;45.572;38.086;2023-02-11T03:37:23;-6.55;80.01
67364;HTU21D;54250;45.572;38.086;2023-02-11T03:39:55;-6.60;79.95
67364;HTU21D;54250;45.572;38.086;2023-02-11T03:42:25;-6.68;79.91
67364;HTU21D;54250;45.572;38.086;2023-02-11T03:44:56;-6.80;79.93
67364;HTU21D;54250;45.572;38.086;2023-02-11T03:47:25;-6.93;79.97
67364;HTU21D;54250;45.572;38.086;2023-02-11T03:49:53;-7.06;80.02
67364;HTU21D;54250;45.572;38.086;2023-02-11T03:52:21;-7.16;80.03
67364;HTU21D;54250;45.572;38.086;2023-02-11T03:54:52;-7.20;79.95
67364;HTU21D;54250;45.572;38.086;2023-02-11T03:57:18;-7.23;79.80
67364;HTU21D;54250;45.572;38.086;2023-02-11T03:59:55;-7.21;79.48
67364;HTU21D;54250;45.572;38.086;2023-02-11T04:02:29;-7.22;79.30
67364;HTU21D;54250;45.572;38.086;2023-02-11T04:04:56;-7.29;79.25
67364;HTU21D;54250;45.572;38.086;2023-02-11T04:07:22;-7.33;79.29
67364;HTU21D;54250;45.572;38.086;2023-02-11T04:09:49;-7.24;79.17
67364;HTU21D;54250;45.572;38.086;2023-02-11T04:12:15;-7.17;78.90
67364;HTU21D;54250;45.572;38.086;2023-02-11T04:14:41;-7.13;78.72
67364;HTU21D;54250;45.572;38.086;2023-02-11T04:17:07;-7.12;78.62
67364;HTU21D;54250;45.572;38.086;2023-02-11T04:19:33;-7.15;78.67
67364;HTU21D;54250;45.572;38.086;2023-02-11T04:21:59;-7.20;78.79
67364;HTU21D;54250;45.572;38.086;2023-02-11T04:24:25;-7.30;78.97
67364;HTU21D;54250;45.572;38.086;2023-02-11T04:26:52;-7.38;79.21
67364;HTU21D;54250;45.572;38.086;2023-02-11T04:29:18;-7.47;79.34
67364;HTU21D;54250;45.572;38.086;2023-02-11T04:31:44;-7.62;79.49
67364;HTU21D;54250;45.572;38.086;2023-02-11T04:34:10;-7.77;79.77
67364;HTU21D;54250;45.572;38.086;2023-02-11T04:36:36;-7.86;79.86
67364;HTU21D;54250;45.572;38.086;2023-02-11T04:39:03;-7.94;79.87
67364;HTU21D;54250;45.572;38.086;2023-02-11T04:41:29;-7.98;79.90
67364;HTU21D;54250;45.572;38.086;2023-02-11T04:43:55;-7.94;79.69
67364;HTU21D;54250;45.572;38.086;2023-02-11T04:46:21;-7.93;79.43
67364;HTU21D;54250;45.572;38.086;2023-02-11T04:48:47;-7.93;79.30
67364;HTU21D;54250;45.572;38.086;2023-02-11T04:51:13;-7.92;79.20
67364;HTU21D;54250;45.572;38.086;2023-02-11T04:53:39;-7.91;79.06
67364;HTU21D;54250;45.572;38.086;2023-02-11T04:56:05;-7.91;78.99
67364;HTU21D;54250;45.572;38.086;2023-02-11T04:58:32;-7.96;79.04
67364;HTU21D;54250;45.572;38.086;2023-02-11T05:01:13;-7.99;79.11
67364;HTU21D;54250;45.572;38.086;2023-02-11T05:03:40;-7.97;79.24
67364;HTU21D;54250;45.572;38.086;2023-02-11T05:06:06;-7.96;79.25
67364;HTU21D;54250;45.572;38.086;2023-02-11T05:08:32;-7.86;79.37
67364;HTU21D;54250;45.572;38.086;2023-02-11T05:10:58;-7.27;79.78
67364;HTU21D;54250;45.572;38.086;2023-02-11T05:13:27;-6.22;77.92
67364;HTU21D;54250;45.572;38.086;2023-02-11T05:15:53;-5.28;75.76
67364;HTU21D;54250;45.572;38.086;2023-02-11T05:18:20;-4.36;74.83
67364;HTU21D;54250;45.572;38.086;2023-02-11T05:20:46;-3.02;73.28
67364;HTU21D;54250;45.572;38.086;2023-02-11T05:23:12;-1.48;70.90
67364;HTU21D;54250;45.572;38.086;2023-02-11T05:25:38;-0.15;69.39
67364;HTU21D;54250;45.572;38.086;2023-02-11T05:28:04;1.20;68.10
67364;HTU21D;54250;45.572;38.086;2023-02-11T05:30:31;2.40;67.01
67364;HTU21D;54250;45.572;38.086;2023-02-11T05:32:57;3.47;66.43
67364;HTU21D;54250;45.572;38.086;2023-02-11T05:35:23;4.66;65.60
67364;HTU21D;54250;45.572;38.086;2023-02-11T05:37:49;5.72;64.87
67364;HTU21D;54250;45.572;38.086;2023-02-11T05:40:15;6.61;64.07
67364;HTU21D;54250;45.572;38.086;2023-02-11T05:42:41;7.42;63.80
67364;HTU21D;54250;45.572;38.086;2023-02-11T05:45:07;8.08;63.47
67364;HTU21D;54250;45.572;38.086;2023-02-11T05:47:34;8.76;63.07
67364;HTU21D;54250;45.572;38.086;2023-02-11T05:49:59;9.25;62.62
67364;HTU21D;54250;45.572;38.086;2023-02-11T05:52:25;9.79;62.48
67364;HTU21D;54250;45.572;38.086;2023-02-11T05:54:51;10.30;61.51
67364;HTU21D;54250;45.572;38.086;2023-02-11T05:57:17;10.68;61.34
67364;HTU21D;54250;45.572;38.086;2023-02-11T05:59:43;10.84;61.64
67364;HTU21D;54250;45.572;38.086;2023-02-11T06:02:09;10.45;62.72
67364;HTU21D;54250;45.572;38.086;2023-02-11T06:04:36;10.33;63.54
67364;HTU21D;54250;45.572;38.086;2023-02-11T06:07:02;10.84;62.65
67364;HTU21D;54250;45.572;38.086;2023-02-11T06:09:29;11.69;60.49
67364;HTU21D;54250;45.572;38.086;2023-02-11T06:11:55;12.28;58.67
67364;HTU21D;54250;45.572;38.086;2023-02-11T06:14:21;12.92;58.05
67364;HTU21D;54250;45.572;38.086;2023-02-11T06:16:47;13.64;56.16
67364;HTU21D;54250;45.572;38.086;2023-02-11T06:19:13;13.86;55.58
67364;HTU21D;54250;45.572;38.086;2023-02-11T06:21:39;14.24;54.81
67364;HTU21D;54250;45.572;38.086;2023-02-11T06:24:05;14.74;54.33
67364;HTU21D;54250;45.572;38.086;2023-02-11T06:26:31;15.09;53.91
67364;HTU21D;54250;45.572;38.086;2023-02-11T06:29:00;15.45;52.68
67364;HTU21D;54250;45.572;38.086;2023-02-11T06:31:27;15.54;52.91
67364;HTU21D;54250;45.572;38.086;2023-02-11T06:33:53;15.86;52.48
67364;HTU21D;54250;45.572;38.086;2023-02-11T06:36:21;15.30;51.58
67364;HTU21D;54250;45.572;38.086;2023-02-11T06:38:47;14.26;53.52
67364;HTU21D;54250;45.572;38.086;2023-02-11T06:41:16;13.90;53.91
67364;HTU21D;54250;45.572;38.086;2023-02-11T06:43:43;14.55;52.22
67364;HTU21D;54250;45.572;38.086;2023-02-11T06:46:09;14.57;51.96
67364;HTU21D;54250;45.572;38.086;2023-02-11T06:48:36;14.77;51.34
67364;HTU21D;54250;45.572;38.086;2023-02-11T06:51:07;15.34;50.32
67364;HTU21D;54250;45.572;38.086;2023-02-11T06:53:38;16.24;48.98
67364;HTU21D;54250;45.572;38.086;2023-02-11T06:56:08;16.87;47.42
67364;HTU21D;54250;45.572;38.086;2023-02-11T06:58:35;17.24;46.39
67364;HTU21D;54250;45.572;38.086;2023-02-11T07:01:08;17.33;45.44
67364;HTU21D;54250;45.572;38.086;2023-02-11T07:03:36;17.64;45.88
67364;HTU21D;54250;45.572;38.086;2023-02-11T07:06:04;18.27;45.15
67364;HTU21D;54250;45.572;38.086;2023-02-11T07:08:35;18.85;44.82
67364;HTU21D;54250;45.572;38.086;2023-02-11T07:11:15;19.26;44.92
67364;HTU21D;54250;45.572;38.086;2023-02-11T07:13:41;19.86;44.12
67364;HTU21D;54250;45.572;38.086;2023-02-11T07:16:10;20.09;43.12
67364;HTU21D;54250;45.572;38.086;2023-02-11T07:18:37;20.28;43.49
67364;HTU21D;54250;45.572;38.086;2023-02-11T07:21:04;20.30;42.94
67364;HTU21D;54250;45.572;38.086;2023-02-11T07:23:31;20.35;43.06
67364;HTU21D;54250;45.572;38.086;2023-02-11T07:25:57;20.68;42.58
67364;HTU21D;54250;45.572;38.086;2023-02-11T07:28:23;20.91;42.17
67364;HTU21D;54250;45.572;38.086;2023-02-11T07:30:49;20.94;41.40
67364;HTU21D;54250;45.572;38.086;2023-02-11T07:33:15;21.33;41.16
67364;HTU21D;54250;45.572;38.086;2023-02-11T07:35:41;21.74;40.49
67364;HTU21D;54250;45.572;38.086;2023-02-11T07:38:07;21.99;39.91
67364;HTU21D;54250;45.572;38.086;2023-02-11T07:40:32;22.13;40.74
67364;HTU21D;54250;45.572;38.086;2023-02-11T07:42:59;22.42;40.20
67364;HTU21D;54250;45.572;38.086;2023-02-11T07:45:26;22.72;39.29
67364;HTU21D;54250;45.572;38.086;2023-02-11T07:47:52;23.06;38.73
67364;HTU21D;54250;45.572;38.086;2023-02-11T07:50:18;23.35;38.83
67364;HTU21D;54250;45.572;38.086;2023-02-11T07:52:44;23.37;38.57
67364;HTU21D;54250;45.572;38.086;2023-02-11T07:55:10;23.53;37.82
67364;HTU21D;54250;45.572;38.086;2023-02-11T07:57:36;23.76;37.51
67364;HTU21D;54250;45.572;38.086;2023-02-11T08:00:04;23.90;36.32
67364;HTU21D;54250;45.572;38.086;2023-02-11T08:02:36;23.67;36.26
67364;HTU21D;54250;45.572;38.086;2023-02-11T08:05:02;23.37;35.54
67364;HTU21D;54250;45.572;38.086;2023-02-11T08:07:28;23.46;35.47
67364;HTU21D;54250;45.572;38.086;2023-02-11T08:09:54;23.69;34.38
67364;HTU21D;54250;45.572;38.086;2023-02-11T08:12:20;23.70;33.82
67364;HTU21D;54250;45.572;38.086;2023-02-11T08:14:46;23.89;34.54
67364;HTU21D;54250;45.572;38.086;2023-02-11T08:17:12;24.09;34.05
67364;HTU21D;54250;45.572;38.086;2023-02-11T08:19:38;24.25;33.65
67364;HTU21D;54250;45.572;38.086;2023-02-11T08:22:04;24.50;33.12
67364;HTU21D;54250;45.572;38.086;2023-02-11T08:24:30;24.60;33.55
67364;HTU21D;54250;45.572;38.086;2023-02-11T08:26:56;24.83;32.75
67364;HTU21D;54250;45.572;38.086;2023-02-11T08:29:22;24.63;31.92
67364;HTU21D;54250;45.572;38.086;2023-02-11T08:31:48;24.40;31.54
67364;HTU21D;54250;45.572;38.086;2023-02-11T08:34:14;24.50;31.17
67364;HTU21D;54250;45.572;38.086;2023-02-11T08:36:45;24.61;31.19
67364;HTU21D;54250;45.572;38.086;2023-02-11T08:39:15;24.47;30.67
67364;HTU21D;54250;45.572;38.086;2023-02-11T08:41:42;24.43;30.98
67364;HTU21D;54250;45.572;38.086;2023-02-11T08:44:08;24.50;30.47
67364;HTU21D;54250;45.572;38.086;2023-02-11T08:46:35;24.51;30.39
67364;HTU21D;54250;45.572;38.086;2023-02-11T08:49:01;24.43;29.78
67364;HTU21D;54250;45.572;38.086;2023-02-11T08:51:28;24.38;30.00
67364;HTU21D;54250;45.572;38.086;2023-02-11T08:53:58;24.35;29.70
67364;HTU21D;54250;45.572;38.086;2023-02-11T08:56:25;24.21;29.66
67364;HTU21D;54250;45.572;38.086;2023-02-11T08:58:51;24.21;30.23
67364;HTU21D;54250;45.572;38.086;2023-02-11T09:01:21;24.29;29.58
67364;HTU21D;54250;45.572;38.086;2023-02-11T09:03:47;24.08;29.90
67364;HTU21D;54250;45.572;38.086;2023-02-11T09:06:13;23.88;29.57
67364;HTU21D;54250;45.572;38.086;2023-02-11T09:08:41;23.60;29.14
67364;HTU21D;54250;45.572;38.086;2023-02-11T09:11:09;23.55;30.22
67364;HTU21D;54250;45.572;38.086;2023-02-11T09:13:35;23.65;30.38
67364;HTU21D;54250;45.572;38.086;2023-02-11T09:16:03;23.71;30.58
67364;HTU21D;54250;45.572;38.086;2023-02-11T09:18:30;23.35;31.22
67364;HTU21D;54250;45.572;38.086;2023-02-11T09:21:07;23.32;30.85
67364;HTU21D;54250;45.572;38.086;2023-02-11T09:23:34;23.27;30.96
67364;HTU21D;54250;45.572;38.086;2023-02-11T09:26:07;23.13;30.56
67364;HTU21D;54250;45.572;38.086;2023-02-11T09:28:33;23.36;31.50
67364;HTU21D;54250;45.572;38.086;2023-02-11T09:31:05;23.13;31.08
67364;HTU21D;54250;45.572;38.086;2023-02-11T09:33:31;22.95;31.30
67364;HTU21D;54250;45.572;38.086;2023-02-11T09:36:00;22.94;30.99
67364;HTU21D;54250;45.572;38.086;2023-02-11T09:38:27;22.88;30.93
67364;HTU21D;54250;45.572;38.086;2023-02-11T09:40:53;22.67;30.67
67364;HTU21D;54250;45.572;38.086;2023-02-11T09:43:42;22.34;30.90
67364;HTU21D;54250;45.572;38.086;2023-02-11T09:46:14;22.06;31.06
67364;HTU21D;54250;45.572;38.086;2023-02-11T09:48:42;21.89;31.30
67364;HTU21D;54250;45.572;38.086;2023-02-11T09:53:56;22.35;32.02
67364;HTU21D;54250;45.572;38.086;2023-02-11T09:56:24;21.90;31.99
67364;HTU21D;54250;45.572;38.086;2023-02-11T09:58:50;21.04;31.92
67364;HTU21D;54250;45.572;38.086;2023-02-11T10:04:06;20.29;32.51
67364;HTU21D;54250;45.572;38.086;2023-02-11T10:09:17;19.90;32.99
67364;HTU21D;54250;45.572;38.086;2023-02-11T10:15:29;19.05;33.34
67364;HTU21D;54250;45.572;38.086;2023-02-11T10:21:07;18.73;34.08
67364;HTU21D;54250;45.572;38.086;2023-02-11T10:23:42;18.95;33.68
67364;HTU21D;54250;45.572;38.086;2023-02-11T10:26:12;18.92;33.55
67364;HTU21D;54250;45.572;38.086;2023-02-11T10:28:43;18.73;33.17
67364;HTU21D;54250;45.572;38.086;2023-02-11T10:31:18;18.50;33.54
67364;HTU21D;54250;45.572;38.086;2023-02-11T10:36:24;18.09;34.69
67364;HTU21D;54250;45.572;38.086;2023-02-11T10:38:51;17.73;35.14
67364;HTU21D;54250;45.572;38.086;2023-02-11T10:41:21;17.32;34.92
67364;HTU21D;54250;45.572;38.086;2023-02-11T10:43:50;16.81;35.02
67364;HTU21D;54250;45.572;38.086;2023-02-11T10:46:21;16.15;35.90
67364;HTU21D;54250;45.572;38.086;2023-02-11T10:48:52;15.21;37.44
67364;HTU21D;54250;45.572;38.086;2023-02-11T10:53:48;14.82;38.33
67364;HTU21D;54250;45.572;38.086;2023-02-11T10:56:24;15.28;37.86
67364;HTU21D;54250;45.572;38.086;2023-02-11T11:01:49;15.68;37.33
67364;HTU21D;54250;45.572;38.086;2023-02-11T11:04:42;15.72;36.92
67364;HTU21D;54250;45.572;38.086;2023-02-11T11:07:22;15.44;36.95
67364;HTU21D;54250;45.572;38.086;2023-02-11T11:09:52;15.25;37.21
67364;HTU21D;54250;45.572;38.086;2023-02-11T11:12:33;14.91;37.43
67364;HTU21D;54250;45.572;38.086;2023-02-11T11:15:21;13.71;38.91
67364;HTU21D;54250;45.572;38.086;2023-02-11T11:18:08;11.70;40.59
67364;HTU21D;54250;45.572;38.086;2023-02-11T11:20:34;10.39;42.77
67364;HTU21D;54250;45.572;38.086;2023-02-11T11:23:21;9.19;44.11
67364;HTU21D;54250;45.572;38.086;2023-02-11T11:28:30;7.92;45.93
67364;HTU21D;54250;45.572;38.086;2023-02-11T11:30:58;7.49;46.42
67364;HTU21D;54250;45.572;38.086;2023-02-11T11:33:30;7.18;46.64
67364;HTU21D;54250;45.572;38.086;2023-02-11T11:36:03;6.86;46.92
67364;HTU21D;54250;45.572;38.086;2023-02-11T11:38:32;6.60;47.27
67364;HTU21D;54250;45.572;38.086;2023-02-11T11:46:38;5.81;48.07
67364;HTU21D;54250;45.572;38.086;2023-02-11T11:49:26;5.60;48.28
67364;HTU21D;54250;45.572;38.086;2023-02-11T11:54:46;5.28;48.90
67364;HTU21D;54250;45.572;38.086;2023-02-11T11:57:17;5.17;49.04
67364;HTU21D;54250;45.572;38.086;2023-02-11T11:59:45;5.03;49.23
67364;HTU21D;54250;45.572;38.086;2023-02-11T12:08:17;4.67;49.78
67364;HTU21D;54250;45.572;38.086;2023-02-11T12:14:05;4.48;49.95
67364;HTU21D;54250;45.572;38.086;2023-02-11T12:31:39;3.79;51.20
67364;HTU21D;54250;45.572;38.086;2023-02-11T12:51:36;3.12;52.34
67364;HTU21D;54250;45.572;38.086;2023-02-11T12:54:42;3.04;52.44
67364;HTU21D;54250;45.572;38.086;2023-02-11T12:57:22;2.96;52.62
67364;HTU21D;54250;45.572;38.086;2023-02-11T13:08:36;2.88;53.11
67364;HTU21D;54250;45.572;38.086;2023-02-11T13:11:10;2.82;53.20
67364;HTU21D;54250;45.572;38.086;2023-02-11T13:19:31;2.53;53.52
67364;HTU21D;54250;45.572;38.086;2023-02-11T13:22:33;2.36;53.59
67364;HTU21D;54250;45.572;38.086;2023-02-11T13:25:24;2.26;53.82
67364;HTU21D;54250;45.572;38.086;2023-02-11T13:28:05;2.14;54.00
67364;HTU21D;54250;45.572;38.086;2023-02-11T13:30:37;2.05;54.10
67364;HTU21D;54250;45.572;38.086;2023-02-11T13:36:27;1.83;54.24
67364;HTU21D;54250;45.572;38.086;2023-02-11T13:38:35;1.70;54.41
67364;HTU21D;54250;45.572;38.086;2023-02-11T13:46:55;1.26;54.68
67364;HTU21D;54250;45.572;38.086;2023-02-11T13:49:25;1.16;54.83
67364;HTU21D;54250;45.572;38.086;2023-02-11T13:51:53;1.03;54.98
67364;HTU21D;54250;45.572;38.086;2023-02-11T13:54:25;0.90;55.09
67364;HTU21D;54250;45.572;38.086;2023-02-11T13:59:48;0.59;55.45
67364;HTU21D;54250;45.572;38.086;2023-02-11T14:02:32;0.46;55.45
67364;HTU21D;54250;45.572;38.086;2023-02-11T14:08:17;0.21;55.64
67364;HTU21D;54250;45.572;38.086;2023-02-11T14:11:09;0.06;55.89
67364;HTU21D;54250;45.572;38.086;2023-02-11T14:16:16;-0.20;56.36
67364;HTU21D;54250;45.572;38.086;2023-02-11T14:31:37;-1.05;56.92
67364;HTU21D;54250;45.572;38.086;2023-02-11T14:36:51;-1.38;57.29
67364;HTU21D;54250;45.572;38.086;2023-02-11T14:42:05;-1.73;57.58
67364;HTU21D;54250;45.572;38.086;2023-02-11T14:44:40;-1.90;57.70
67364;HTU21D;54250;45.572;38.086;2023-02-11T14:47:06;-2.04;57.83
67364;HTU21D;54250;45.572;38.086;2023-02-11T14:49:38;-2.15;57.95
67364;HTU21D;54250;45.572;38.086;2023-02-11T14:54:38;-2.38;58.03
67364;HTU21D;54250;45.572;38.086;2023-02-11T14:57:14;-2.48;58.15
67364;HTU21D;54250;45.572;38.086;2023-02-11T15:00:02;-2.59;57.86
67364;HTU21D;54250;45.572;38.086;2023-02-11T15:02:36;-2.63;57.99
67364;HTU21D;54250;45.572;38.086;2023-02-11T15:05:12;-2.96;58.12
67364;HTU21D;54250;45.572;38.086;2023-02-11T15:07:57;-3.02;58.33
67364;HTU21D;54250;45.572;38.086;2023-02-11T15:12:59;-3.08;58.30
67364;HTU21D;54250;45.572;38.086;2023-02-11T15:15:26;-3.04;58.09
67364;HTU21D;54250;45.572;38.086;2023-02-11T15:17:54;-3.04;58.00
67364;HTU21D;54250;45.572;38.086;2023-02-11T15:20:24;-3.05;57.90
67364;HTU21D;54250;45.572;38.086;2023-02-11T15:22:55;-3.11;57.92
67364;HTU21D;54250;45.572;38.086;2023-02-11T15:25:22;-3.15;57.91
67364;HTU21D;54250;45.572;38.086;2023-02-11T15:27:53;-3.20;57.90
67364;HTU21D;54250;45.572;38.086;2023-02-11T15:32:53;-3.35;57.99
67364;HTU21D;54250;45.572;38.086;2023-02-11T15:35:31;-3.48;58.12
67364;HTU21D;54250;45.572;38.086;2023-02-11T15:37:58;-3.54;58.22
67364;HTU21D;54250;45.572;38.086;2023-02-11T15:40:26;-3.58;58.31
67364;HTU21D;54250;45.572;38.086;2023-02-11T15:42:58;-3.67;58.37
67364;HTU21D;54250;45.572;38.086;2023-02-11T15:45:29;-3.68;58.47
67364;HTU21D;54250;45.572;38.086;2023-02-11T15:48:10;-3.69;58.51
67364;HTU21D;54250;45.572;38.086;2023-02-11T15:50:38;-3.71;58.48
67364;HTU21D;54250;45.572;38.086;2023-02-11T15:56:03;-3.92;58.77
67364;HTU21D;54250;45.572;38.086;2023-02-11T15:58:39;-3.94;58.81
67364;HTU21D;54250;45.572;38.086;2023-02-11T16:01:06;-4.09;58.80
67364;HTU21D;54250;45.572;38.086;2023-02-11T16:03:33;-4.02;58.83
67364;HTU21D;54250;45.572;38.086;2023-02-11T16:06:16;-4.08;58.77
67364;HTU21D;54250;45.572;38.086;2023-02-11T16:09:02;-4.10;58.80
67364;HTU21D;54250;45.572;38.086;2023-02-11T16:11:33;-4.06;58.92
67364;HTU21D;54250;45.572;38.086;2023-02-11T16:14:01;-4.01;58.80
67364;HTU21D;54250;45.572;38.086;2023-02-11T16:16:29;-4.01;58.77
67364;HTU21D;54250;45.572;38.086;2023-02-11T16:18:58;-4.00;58.77
67364;HTU21D;54250;45.572;38.086;2023-02-11T16:21:32;-4.07;58.77
67364;HTU21D;54250;45.572;38.086;2023-02-11T16:24:05;-4.09;58.92
67364;HTU21D;54250;45.572;38.086;2023-02-11T16:26:40;-4.12;58.87
67364;HTU21D;54250;45.572;38.086;2023-02-11T16:29:16;-4.16;58.97
67364;HTU21D;54250;45.572;38.086;2023-02-11T16:31:44;-4.19;59.08
67364;HTU21D;54250;45.572;38.086;2023-02-11T16:34:22;-4.20;58.96
67364;HTU21D;54250;45.572;38.086;2023-02-11T16:36:49;-4.17;59.13
67364;HTU21D;54250;45.572;38.086;2023-02-11T16:39:17;-4.12;58.98
67364;HTU21D;54250;45.572;38.086;2023-02-11T16:41:46;-4.09;58.93
67364;HTU21D;54250;45.572;38.086;2023-02-11T16:44:12;-4.11;58.90
67364;HTU21D;54250;45.572;38.086;2023-02-11T16:46:38;-4.12;58.97
67364;HTU21D;54250;45.572;38.086;2023-02-11T16:51:54;-4.21;59.22
67364;HTU21D;54250;45.572;38.086;2023-02-11T16:54:22;-4.17;59.46
67364;HTU21D;54250;45.572;38.086;2023-02-11T16:56:48;-4.11;59.58
67364;HTU21D;54250;45.572;38.086;2023-02-11T16:59:15;-4.10;59.56
67364;HTU21D;54250;45.572;38.086;2023-02-11T17:01:42;-4.10;59.37
67364;HTU21D;54250;45.572;38.086;2023-02-11T17:04:26;-4.13;59.51
67364;HTU21D;54250;45.572;38.086;2023-02-11T17:06:53;-4.17;59.69
67364;HTU21D;54250;45.572;38.086;2023-02-11T17:09:24;-4.17;59.64
67364;HTU21D;54250;45.572;38.086;2023-02-11T17:11:50;-4.24;59.59
67364;HTU21D;54250;45.572;38.086;2023-02-11T17:14:17;-4.34;59.77
67364;HTU21D;54250;45.572;38.086;2023-02-11T17:16:45;-4.45;59.94
67364;HTU21D;54250;45.572;38.086;2023-02-11T17:19:13;-4.51;60.04
67364;HTU21D;54250;45.572;38.086;2023-02-11T17:21:46;-4.51;60.10
67364;HTU21D;54250;45.572;38.086;2023-02-11T17:24:13;-4.51;60.06
67364;HTU21D;54250;45.572;38.086;2023-02-11T17:26:40;-4.52;60.78
67364;HTU21D;54250;45.572;38.086;2023-02-11T17:29:08;-4.44;60.99
67364;HTU21D;54250;45.572;38.086;2023-02-11T17:31:35;-4.37;60.83
67364;HTU21D;54250;45.572;38.086;2023-02-11T17:34:02;-4.34;60.69
67364;HTU21D;54250;45.572;38.086;2023-02-11T17:36:28;-4.27;60.64
67364;HTU21D;54250;45.572;38.086;2023-02-11T17:38:56;-4.28;60.85
67364;HTU21D;54250;45.572;38.086;2023-02-11T17:41:23;-4.23;61.88
67364;HTU21D;54250;45.572;38.086;2023-02-11T17:43:49;-4.17;61.72
67364;HTU21D;54250;45.572;38.086;2023-02-11T17:46:15;-4.11;62.04
67364;HTU21D;54250;45.572;38.086;2023-02-11T17:48:41;-4.00;62.73
67364;HTU21D;54250;45.572;38.086;2023-02-11T17:51:34;-3.98;62.76
67364;HTU21D;54250;45.572;38.086;2023-02-11T17:54:04;-3.96;63.79
67364;HTU21D;54250;45.572;38.086;2023-02-11T17:56:32;-3.97;63.92
67364;HTU21D;54250;45.572;38.086;2023-02-11T17:58:58;-4.02;63.70
67364;HTU21D;54250;45.572;38.086;2023-02-11T18:01:28;-4.08;63.58
67364;HTU21D;54250;45.572;38.086;2023-02-11T18:03:54;-4.12;63.73
67364;HTU21D;54250;45.572;38.086;2023-02-11T18:06:21;-4.15;63.68